Tams, West Virginia
Current Conditions -  °F | °C
As of 2:51 PM on Friday 28 Nov 2014 (Local Time) from KBKW Reporting Station
Scattered Clouds Scattered Clouds  
Wind Chill: 21°   Ceiling: Unl
Heat Index: 26°   Visibility: 10mi
Dew Point: 15°   Wind: 5mph
Humidity: 63%   Direction: 210°SSW
Pressure: 30.21"   Gusts: NA
Location:  37.6919°N, 81.2784°W
Report Text: KBKW 281951Z AUTO 21004KT 10SM SCT025 M03/M09 A3021 RMK AO2 SLP269 T10331094
Loading
Personal Weather Stations






























Interactive Weather Map New forecast layout! Learn more

10-Day Weather Forecast

Advertisements
Track Severe Weather on mobile